createdAt,value
2019-04-07T00:02:23.456Z,37.53
2019-04-07T00:04:53.665Z,32.15
2019-04-07T00:07:24.186Z,31.97
2019-04-07T00:09:54.848Z,32.15
2019-04-07T00:12:25.375Z,36.48
2019-04-07T00:17:25.203Z,35.00
2019-04-07T00:19:55.637Z,36.17
2019-04-07T00:24:55.609Z,37.10
2019-04-07T00:29:55.764Z,34.55
2019-04-07T00:32:25.804Z,33.85
2019-04-07T00:34:56.907Z,34.70
2019-04-07T00:37:27.331Z,33.73
2019-04-07T00:42:27.414Z,31.07
2019-04-07T00:44:58.728Z,31.90
2019-04-07T00:47:28.779Z,32.23
2019-04-07T00:49:58.779Z,30.32
2019-04-07T00:52:29.482Z,32.70
2019-04-07T00:54:59.614Z,30.97
2019-04-07T00:57:30.302Z,36.05
2019-04-07T01:00:01.680Z,35.33
2019-04-07T01:02:32.264Z,35.15
2019-04-07T01:05:02.595Z,35.70
2019-04-07T01:07:33.397Z,36.23
2019-04-07T01:10:03.639Z,40.43
2019-04-07T01:12:34.697Z,62.20
2019-04-07T01:15:07.676Z,56.50
2019-04-07T01:17:37.939Z,35.63
2019-04-07T01:20:10.601Z,41.05
2019-04-07T01:22:40.826Z,43.95
2019-04-07T01:25:11.273Z,46.77
2019-04-07T01:30:11.809Z,42.70
2019-04-07T01:35:11.184Z,47.25
2019-04-07T01:37:41.820Z,45.10
2019-04-07T01:42:58.880Z,42.05
2019-04-07T01:45:47.251Z,39.30
2019-04-07T01:48:20.354Z,40.92
2019-04-07T01:50:54.735Z,44.03
2019-04-07T01:53:26.308Z,44.18
2019-04-07T01:55:58.641Z,41.98
2019-04-07T01:58:36.176Z,41.88
2019-04-07T02:01:07.659Z,48.17
2019-04-07T02:03:39.194Z,50.03
2019-04-07T02:06:27.008Z,56.58
2019-04-07T02:09:01.820Z,55.00
2019-04-07T02:11:41.263Z,52.78
2019-04-07T02:14:29.051Z,56.90
2019-04-07T02:17:09.969Z,55.70
2019-04-07T02:19:57.993Z,54.05
2019-04-07T02:22:32.234Z,57.27
2019-04-07T02:25:09.839Z,45.30
2019-04-07T02:27:56.871Z,57.98
2019-04-07T02:30:35.255Z,41.95
2019-04-07T02:33:06.965Z,46.13
2019-04-07T02:36:12.835Z,45.48
2019-04-07T02:38:30.239Z,51.68
2019-04-07T02:41:02.047Z,48.63
2019-04-07T02:43:51.595Z,50.98
2019-04-07T02:46:27.234Z,49.08
2019-04-07T02:49:16.698Z,49.10
2019-04-07T02:51:48.194Z,47.27
2019-04-07T02:54:38.089Z,50.00
2019-04-07T02:57:29.167Z,44.48
2019-04-07T03:00:07.680Z,52.38
2019-04-07T03:02:42.450Z,51.80
2019-04-07T03:05:26.635Z,52.85
2019-04-07T03:07:59.400Z,46.53
2019-04-07T03:10:31.328Z,46.02
2019-04-07T03:13:12.750Z,37.98
2019-04-07T03:15:44.359Z,44.85
2019-04-07T03:18:19.980Z,43.25
2019-04-07T03:20:55.769Z,39.13
2019-04-07T03:23:30.507Z,41.23
2019-04-07T03:26:15.135Z,41.92
2019-04-07T03:28:47.498Z,43.90
2019-04-07T03:31:23.887Z,40.40
2019-04-07T03:34:13.972Z,40.70
2019-04-07T03:37:19.108Z,42.00
2019-04-07T03:39:27.795Z,43.85
2019-04-07T03:42:08.739Z,41.83
2019-04-07T03:44:49.450Z,41.18
2019-04-07T03:47:39.586Z,40.98
2019-04-07T03:50:27.815Z,39.67
2019-04-07T03:52:59.305Z,41.10
2019-04-07T03:55:36.947Z,40.03
2019-04-07T03:58:08.517Z,42.30
2019-04-07T04:01:18.037Z,41.50
2019-04-07T04:03:49.703Z,41.58
2019-04-07T04:06:28.048Z,41.23
2019-04-07T04:09:02.564Z,41.73
2019-04-07T04:11:45.259Z,39.98
2019-04-07T04:14:29.554Z,40.48
2019-04-07T04:16:59.780Z,38.30
2019-04-07T04:19:30.202Z,45.58
2019-04-07T04:22:00.634Z,36.33
2019-04-07T04:24:30.702Z,49.18
2019-04-07T04:27:00.989Z,42.35
2019-04-07T04:29:31.802Z,38.55
2019-04-07T04:32:01.966Z,41.77
2019-04-07T04:34:32.934Z,40.80
2019-04-07T04:37:03.939Z,40.15
2019-04-07T04:39:34.119Z,36.42
2019-04-07T04:42:05.609Z,44.70
2019-04-07T04:44:36.026Z,35.23
2019-04-07T04:47:05.959Z,32.73
2019-04-07T04:49:36.087Z,31.55
2019-04-07T04:52:07.062Z,32.15
2019-04-07T04:54:37.286Z,31.27
2019-04-07T04:57:09.169Z,31.48
2019-04-07T04:59:40.129Z,27.22
2019-04-07T05:02:10.780Z,28.32
2019-04-07T05:04:40.815Z,23.87
2019-04-07T05:07:11.326Z,24.30
2019-04-07T05:09:48.763Z,24.57
2019-04-07T05:12:13.070Z,22.85
2019-04-07T05:14:42.958Z,23.90
2019-04-07T05:17:12.951Z,22.17
2019-04-07T05:19:42.996Z,22.13
2019-04-07T05:22:13.642Z,22.45
2019-04-07T05:24:43.607Z,21.35
2019-04-07T05:27:13.945Z,22.73
2019-04-07T05:29:44.663Z,22.75
2019-04-07T05:34:44.640Z,23.25
2019-04-07T05:37:14.619Z,21.02
2019-04-07T05:39:44.596Z,19.48
2019-04-07T05:42:14.717Z,19.67
2019-04-07T05:44:44.792Z,18.73
2019-04-07T05:47:15.531Z,17.98
2019-04-07T05:49:45.701Z,17.20
2019-04-07T05:52:16.110Z,16.85
2019-04-07T05:54:49.606Z,16.67
2019-04-07T05:57:18.581Z,15.85
2019-04-07T05:59:48.827Z,16.20
2019-04-07T06:02:19.023Z,14.65
2019-04-07T06:04:49.275Z,15.85
2019-04-07T06:07:19.299Z,15.93
2019-04-07T06:09:51.192Z,15.10
2019-04-07T06:12:21.561Z,15.35
2019-04-07T06:17:21.177Z,14.63
2019-04-07T06:19:52.466Z,15.43
2019-04-07T06:22:23.623Z,14.63
2019-04-07T06:24:53.842Z,13.80
2019-04-07T06:27:24.052Z,13.40
2019-04-07T06:29:58.984Z,13.38
2019-04-07T06:32:27.549Z,14.18
2019-04-07T06:34:59.394Z,13.38
2019-04-07T06:37:29.550Z,13.35
2019-04-07T06:39:59.617Z,13.13
2019-04-07T06:42:33.199Z,13.38
2019-04-07T06:45:01.609Z,12.90
2019-04-07T06:47:39.801Z,13.22
2019-04-07T06:50:32.311Z,13.17
2019-04-07T06:53:04.442Z,13.43
2019-04-07T06:55:36.263Z,14.73
2019-04-07T06:58:23.244Z,13.48
2019-04-07T07:01:00.278Z,12.60
2019-04-07T07:03:35.888Z,12.10
2019-04-07T07:06:18.398Z,12.18
2019-04-07T07:08:55.394Z,12.88
2019-04-07T07:11:30.081Z,12.03
2019-04-07T07:14:07.807Z,13.88
2019-04-07T07:16:46.730Z,10.90
2019-04-07T07:19:34.710Z,10.65
2019-04-07T07:22:16.571Z,10.50
2019-04-07T07:24:47.416Z,43.73
2019-04-07T07:27:18.988Z,9.28
2019-04-07T07:29:52.546Z,9.43
2019-04-07T07:32:20.565Z,10.25
2019-04-07T07:34:50.803Z,9.45
2019-04-07T07:37:22.924Z,8.75
2019-04-07T07:39:52.512Z,9.00
2019-04-07T07:42:24.238Z,9.20
2019-04-07T07:44:54.223Z,9.35
2019-04-07T07:47:24.159Z,7.90
2019-04-07T07:49:54.201Z,8.03
2019-04-07T07:52:24.300Z,7.80
2019-04-07T07:54:55.123Z,8.18
2019-04-07T07:57:25.339Z,7.90
2019-04-07T07:59:55.372Z,8.40
2019-04-07T08:02:25.406Z,8.50
2019-04-07T08:04:57.869Z,8.63
2019-04-07T08:07:27.017Z,8.30
2019-04-07T08:09:58.041Z,13.35
2019-04-07T08:12:28.193Z,8.88
2019-04-07T08:14:58.690Z,9.58
2019-04-07T08:19:59.952Z,9.13
2019-04-07T08:22:33.939Z,8.70
2019-04-07T08:25:02.421Z,9.18
2019-04-07T08:27:33.165Z,9.70
2019-04-07T08:30:03.821Z,9.95
2019-04-07T08:32:34.332Z,8.78
2019-04-07T08:35:06.895Z,9.80
2019-04-07T08:37:36.864Z,9.55
2019-04-07T08:40:09.097Z,9.45
2019-04-07T08:42:39.287Z,9.20
2019-04-07T08:47:40.187Z,10.13
2019-04-07T08:50:10.575Z,10.38
2019-04-07T08:52:42.773Z,10.28
2019-04-07T08:55:12.875Z,9.15
2019-04-07T08:57:43.468Z,9.15
2019-04-07T09:00:17.395Z,9.63
2019-04-07T09:03:00.202Z,9.23
2019-04-07T09:05:25.598Z,9.28
2019-04-07T09:07:52.877Z,9.18
2019-04-07T09:10:27.444Z,9.53
2019-04-07T09:13:01.725Z,9.53
2019-04-07T09:15:30.639Z,9.10
2019-04-07T09:18:02.213Z,8.23
2019-04-07T09:20:34.604Z,9.53
2019-04-07T09:23:09.265Z,8.78
2019-04-07T09:25:57.289Z,9.25
2019-04-07T09:28:34.795Z,9.93
2019-04-07T09:31:18.600Z,8.18
2019-04-07T09:33:53.973Z,8.23
2019-04-07T09:36:26.380Z,8.50
2019-04-07T09:39:01.838Z,9.20
2019-04-07T09:41:42.814Z,9.78
2019-04-07T09:44:17.366Z,10.85
2019-04-07T09:46:55.054Z,11.85
2019-04-07T09:49:48.147Z,11.33
2019-04-07T09:52:30.559Z,10.50
2019-04-07T09:55:09.701Z,9.83
2019-04-07T09:57:50.933Z,9.33
2019-04-07T10:00:23.941Z,8.65
2019-04-07T10:02:58.890Z,8.95
2019-04-07T10:05:40.438Z,9.20
2019-04-07T10:08:24.936Z,9.85
2019-04-07T10:10:57.232Z,10.23
2019-04-07T10:13:29.604Z,10.20
2019-04-07T10:16:02.283Z,10.10
2019-04-07T10:18:52.252Z,10.63
2019-04-07T10:21:30.043Z,9.50
2019-04-07T10:24:05.264Z,9.00
2019-04-07T10:26:53.674Z,9.65
2019-04-07T10:29:25.443Z,9.93
2019-04-07T10:31:57.623Z,9.68
2019-04-07T10:34:41.206Z,8.98
2019-04-07T10:37:13.380Z,9.35
2019-04-07T10:39:56.817Z,9.05
2019-04-07T10:42:33.537Z,9.10
2019-04-07T10:45:09.013Z,10.03
2019-04-07T10:47:46.864Z,9.90
2019-04-07T10:50:34.767Z,9.78
2019-04-07T10:53:14.229Z,9.25
2019-04-07T10:55:45.919Z,8.05
2019-04-07T10:58:33.966Z,9.65
2019-04-07T11:01:16.703Z,9.13
2019-04-07T11:04:04.967Z,8.83
2019-04-07T11:06:46.158Z,9.13
2019-04-07T11:09:21.151Z,9.40
2019-04-07T11:11:53.391Z,9.98
2019-04-07T11:14:25.151Z,8.08
2019-04-07T11:17:08.877Z,8.48
2019-04-07T11:19:53.147Z,7.97
2019-04-07T11:22:41.376Z,8.58
2019-04-07T11:25:16.453Z,9.70
2019-04-07T11:28:05.306Z,8.88
2019-04-07T11:30:53.477Z,9.95
2019-04-07T11:33:41.408Z,8.28
2019-04-07T11:36:25.543Z,7.90
2019-04-07T11:39:13.726Z,8.20
2019-04-07T11:41:57.578Z,9.35
2019-04-07T11:44:44.306Z,9.50
2019-04-07T11:47:18.636Z,8.60
2019-04-07T11:50:00.158Z,8.25
2019-04-07T11:52:35.322Z,9.53
2019-04-07T11:55:30.071Z,8.35
2019-04-07T11:58:13.496Z,7.90
2019-04-07T12:00:44.131Z,8.50
2019-04-07T12:03:19.197Z,7.35
2019-04-07T12:05:55.145Z,8.13
2019-04-07T12:08:43.289Z,8.35
2019-04-07T12:11:20.825Z,8.83
2019-04-07T12:13:58.720Z,8.85
2019-04-07T12:16:37.072Z,7.83
2019-04-07T12:19:24.920Z,8.85
2019-04-07T12:22:14.325Z,8.40
2019-04-07T12:24:47.956Z,7.75
2019-04-07T12:27:22.521Z,7.42
2019-04-07T12:29:54.150Z,8.73
2019-04-07T12:32:26.056Z,8.20
2019-04-07T12:35:09.778Z,8.45
2019-04-07T12:37:59.118Z,8.13
2019-04-07T12:40:30.923Z,8.73
2019-04-07T12:43:02.531Z,8.00
2019-04-07T12:45:50.728Z,9.18
2019-04-07T12:48:39.196Z,11.08
2019-04-07T12:51:19.859Z,8.55
2019-04-07T12:53:53.675Z,7.45
2019-04-07T12:56:34.337Z,7.95
2019-04-07T12:59:14.275Z,7.92
2019-04-07T13:01:51.046Z,8.83
2019-04-07T13:04:41.804Z,9.53
2019-04-07T13:07:20.555Z,8.88
2019-04-07T13:09:55.105Z,8.03
2019-04-07T13:12:43.317Z,7.97
2019-04-07T13:15:18.363Z,9.58
2019-04-07T13:18:07.714Z,8.88
2019-04-07T13:21:04.319Z,8.33
2019-04-07T13:23:39.665Z,8.50
2019-04-07T13:26:20.069Z,8.20
2019-04-07T13:31:47.138Z,8.33
2019-04-07T13:34:37.012Z,8.43
2019-04-07T13:37:14.575Z,8.40
2019-04-07T13:39:50.283Z,8.98
2019-04-07T13:42:23.068Z,8.48
2019-04-07T13:44:55.845Z,8.48
2019-04-07T13:47:46.241Z,8.58
2019-04-07T13:50:35.470Z,8.28
2019-04-07T13:53:16.572Z,7.83
2019-04-07T13:56:00.719Z,8.20
2019-04-07T13:58:35.343Z,8.13
2019-04-07T14:01:08.495Z,8.45
2019-04-07T14:03:40.657Z,8.28
2019-04-07T14:06:29.501Z,9.93
2019-04-07T14:09:07.055Z,9.88
2019-04-07T14:11:58.296Z,8.38
2019-04-07T14:14:24.448Z,9.70
2019-04-07T14:16:56.192Z,8.75
2019-04-07T14:19:40.079Z,8.85
2019-04-07T14:22:11.573Z,8.83
2019-04-07T14:24:43.640Z,8.88
2019-04-07T14:27:15.401Z,9.53
2019-04-07T14:29:50.237Z,10.08
2019-04-07T14:32:22.051Z,8.60
2019-04-07T14:34:59.582Z,8.50
2019-04-07T14:37:40.802Z,9.45
2019-04-07T14:40:31.365Z,8.48
2019-04-07T14:43:05.531Z,8.43
2019-04-07T14:45:40.634Z,8.48
2019-04-07T14:48:16.149Z,8.38
2019-04-07T14:50:53.794Z,9.00
2019-04-07T14:53:37.753Z,8.83
2019-04-07T14:56:09.982Z,9.18
2019-04-07T14:58:42.383Z,10.50
2019-04-07T15:01:26.388Z,9.90
2019-04-07T15:03:56.424Z,10.03
2019-04-07T15:06:31.141Z,9.43
2019-04-07T15:09:06.768Z,9.63
2019-04-07T15:11:53.822Z,9.93
2019-04-07T15:14:23.862Z,10.05
2019-04-07T15:16:54.613Z,9.95
2019-04-07T15:19:24.852Z,9.13
2019-04-07T15:21:55.472Z,10.60
2019-04-07T15:24:26.016Z,9.93
2019-04-07T15:29:26.406Z,11.55
2019-04-07T15:31:56.699Z,10.80
2019-04-07T15:34:28.566Z,13.30
2019-04-07T15:36:59.085Z,12.03
2019-04-07T15:44:29.435Z,10.08
2019-04-07T15:46:59.301Z,10.18
2019-04-07T15:49:29.534Z,10.20
2019-04-07T15:52:01.449Z,10.00
2019-04-07T15:54:31.978Z,11.53
2019-04-07T15:57:02.530Z,11.63
2019-04-07T16:02:02.410Z,16.62
2019-04-07T16:04:33.074Z,18.77
2019-04-07T16:07:03.134Z,20.27
2019-04-07T16:09:40.379Z,18.70
2019-04-07T16:12:06.391Z,17.48
2019-04-07T16:14:38.466Z,14.85
2019-04-07T16:17:09.928Z,12.43
2019-04-07T16:19:44.035Z,11.85
2019-04-07T16:22:14.141Z,11.25
2019-04-07T16:24:43.647Z,12.65
2019-04-07T16:27:13.761Z,13.72
2019-04-07T16:29:46.088Z,14.07
2019-04-07T16:32:15.702Z,14.38
2019-04-07T16:34:46.329Z,20.68
2019-04-07T16:37:16.574Z,25.97
2019-04-07T16:39:46.605Z,24.50
2019-04-07T16:42:17.349Z,19.35
2019-04-07T16:44:48.309Z,19.57
2019-04-07T16:47:23.223Z,17.85
2019-04-07T16:49:50.318Z,19.20
2019-04-07T16:52:20.519Z,23.80
2019-04-07T16:54:50.586Z,29.37
2019-04-07T16:57:20.571Z,25.05
2019-04-07T16:59:50.500Z,21.52
2019-04-07T17:02:20.418Z,19.90
2019-04-07T17:04:52.632Z,22.15
2019-04-07T17:07:23.323Z,27.87
2019-04-07T17:09:56.437Z,32.73
2019-04-07T17:12:25.874Z,32.40
2019-04-07T17:17:25.163Z,24.98
2019-04-07T17:19:58.210Z,21.48
2019-04-07T17:22:27.252Z,21.80
2019-04-07T17:25:00.335Z,21.68
2019-04-07T17:27:29.336Z,19.40
2019-04-07T17:29:59.324Z,20.05
2019-04-07T17:32:33.116Z,19.62
2019-04-07T17:35:02.102Z,30.82
2019-04-07T17:37:33.325Z,24.98
2019-04-07T17:40:11.304Z,27.32
2019-04-07T17:42:39.820Z,27.98
2019-04-07T17:45:28.723Z,23.50
2019-04-07T17:48:17.103Z,24.35
2019-04-07T17:50:55.293Z,26.90
2019-04-07T17:53:29.887Z,28.87
2019-04-07T17:56:04.429Z,24.32
2019-04-07T17:58:48.285Z,21.68
2019-04-07T18:01:38.972Z,24.35
2019-04-07T18:04:27.923Z,20.65
2019-04-07T18:07:16.410Z,24.57
2019-04-07T18:09:51.322Z,32.15
2019-04-07T18:12:31.774Z,34.45
2019-04-07T18:15:19.171Z,26.20
2019-04-07T18:17:56.518Z,19.87
2019-04-07T18:20:44.643Z,19.42
2019-04-07T18:23:16.119Z,20.10
2019-04-07T18:25:53.614Z,22.60
2019-04-07T18:28:30.159Z,20.52
2019-04-07T18:31:04.402Z,19.92
2019-04-07T18:33:34.728Z,20.37
2019-04-07T18:36:22.477Z,21.52
2019-04-07T18:38:54.847Z,20.52
2019-04-07T18:41:36.284Z,22.25
2019-04-07T18:44:24.011Z,22.90
2019-04-07T18:46:58.555Z,23.55
2019-04-07T18:49:33.714Z,26.00
2019-04-07T18:52:22.684Z,24.82
2019-04-07T18:55:02.040Z,24.43
2019-04-07T18:57:42.682Z,24.20
2019-04-07T19:00:18.946Z,23.02
2019-04-07T19:02:53.669Z,18.80
2019-04-07T19:05:31.558Z,19.50
2019-04-07T19:08:01.435Z,19.50
2019-04-07T19:10:33.489Z,21.02
2019-04-07T19:13:26.754Z,20.97
2019-04-07T19:16:04.140Z,22.20
2019-04-07T19:18:52.053Z,19.70
2019-04-07T19:21:24.674Z,21.17
2019-04-07T19:23:59.127Z,20.48
2019-04-07T19:26:53.044Z,23.62
2019-04-07T19:29:31.543Z,24.92
2019-04-07T19:32:03.888Z,25.05
2019-04-07T19:34:35.632Z,26.93
2019-04-07T19:37:10.221Z,24.43
2019-04-07T19:39:44.575Z,21.33
2019-04-07T19:42:17.626Z,25.32
2019-04-07T19:44:52.226Z,24.90
2019-04-07T19:47:22.729Z,24.32
2019-04-07T19:49:54.422Z,29.67
2019-04-07T19:52:42.905Z,36.23
2019-04-07T19:55:14.650Z,39.63
2019-04-07T19:58:03.000Z,45.15
2019-04-07T20:00:35.502Z,52.67
2019-04-07T20:03:13.308Z,46.95
2019-04-07T20:05:43.341Z,45.15
2019-04-07T20:08:15.016Z,62.58
2019-04-07T20:10:46.792Z,45.15
2019-04-07T20:13:24.602Z,43.35
2019-04-07T20:15:59.297Z,45.50
2019-04-07T20:18:35.336Z,55.23
2019-04-07T20:21:13.188Z,52.60
2019-04-07T20:23:52.564Z,67.92
2019-04-07T20:26:40.811Z,72.58
2019-04-07T20:29:25.764Z,82.47
2019-04-07T20:32:13.109Z,85.62
2019-04-07T20:34:45.067Z,94.52
2019-04-07T20:37:33.114Z,99.72
2019-04-07T20:40:19.615Z,75.70
2019-04-07T20:42:53.120Z,52.80
2019-04-07T20:45:36.654Z,187.07
2019-04-07T20:48:25.655Z,139.75
2019-04-07T20:51:10.316Z,118.85
2019-04-07T20:53:51.530Z,104.85
2019-04-07T20:56:42.039Z,88.37
2019-04-07T20:59:33.200Z,57.58
2019-04-07T21:02:07.497Z,35.95
2019-04-07T21:04:40.205Z,27.05
2019-04-07T21:07:28.978Z,37.17
2019-04-07T21:10:16.685Z,40.12
2019-04-07T21:12:48.645Z,39.00
2019-04-07T21:15:27.508Z,41.45
2019-04-07T21:18:00.255Z,43.17
2019-04-07T21:20:32.117Z,24.45
2019-04-07T21:23:16.190Z,21.68
2019-04-07T21:25:55.852Z,26.17
2019-04-07T21:28:26.739Z,36.77
2019-04-07T21:30:58.400Z,38.20
2019-04-07T21:33:36.627Z,36.35
2019-04-07T21:36:23.761Z,26.57
2019-04-07T21:39:14.243Z,28.12
2019-04-07T21:41:48.668Z,22.25
2019-04-07T21:44:20.233Z,21.35
2019-04-07T21:47:04.334Z,21.12
2019-04-07T21:49:39.496Z,19.55
2019-04-07T21:52:26.554Z,19.92
2019-04-07T21:55:11.784Z,19.25
2019-04-07T21:57:46.689Z,18.73
2019-04-07T22:00:16.952Z,17.05
2019-04-07T22:02:52.683Z,17.77
2019-04-07T22:05:30.010Z,17.98
2019-04-07T22:08:08.021Z,16.25
2019-04-07T22:10:34.008Z,17.10
2019-04-07T22:13:06.680Z,16.23
2019-04-07T22:15:45.890Z,15.75
2019-04-07T22:18:08.985Z,15.03
2019-04-07T22:20:39.302Z,15.23
2019-04-07T22:23:09.983Z,15.40
2019-04-07T22:25:51.478Z,14.30
2019-04-07T22:28:22.646Z,14.28
2019-04-07T22:30:55.254Z,14.38
2019-04-07T22:33:26.873Z,12.98
2019-04-07T22:35:57.564Z,13.80
2019-04-07T22:38:27.666Z,15.53
2019-04-07T22:40:58.395Z,14.38
2019-04-07T22:43:28.656Z,15.25
2019-04-07T22:46:07.747Z,14.38
2019-04-07T22:48:31.014Z,13.43
2019-04-07T22:51:02.948Z,13.68
2019-04-07T22:53:33.912Z,13.15
2019-04-07T22:56:07.809Z,13.35
2019-04-07T22:58:36.549Z,13.65
2019-04-07T23:01:07.564Z,12.18
2019-04-07T23:03:37.753Z,12.93
2019-04-07T23:06:07.686Z,13.18
2019-04-07T23:08:37.720Z,13.48
2019-04-07T23:11:08.476Z,14.00
2019-04-07T23:13:39.731Z,13.60
2019-04-07T23:16:13.857Z,13.25
2019-04-07T23:18:42.224Z,12.88
2019-04-07T23:21:12.420Z,13.10
2019-04-07T23:23:42.462Z,12.73
2019-04-07T23:26:12.476Z,12.40
2019-04-07T23:28:42.521Z,11.53
2019-04-07T23:31:12.651Z,11.55
2019-04-07T23:33:42.597Z,10.88
2019-04-07T23:36:13.648Z,11.03
2019-04-07T23:38:45.319Z,11.25
2019-04-07T23:43:44.439Z,10.53
2019-04-07T23:46:22.838Z,10.28
2019-04-07T23:48:46.099Z,10.60
2019-04-07T23:51:16.502Z,10.08
2019-04-07T23:54:11.344Z,10.28
2019-04-07T23:56:43.654Z,10.53
2019-04-07T23:59:14.611Z,10.98
